sensor_id;sensor_type;location;lat;lon;timestamp;temperature;humidity
43651;DHT22;29247;50.944;5.382;2023-02-01T00:00:31;7.50;91.50
43651;DHT22;29247;50.944;5.382;2023-02-01T00:03:00;7.50;91.50
43651;DHT22;29247;50.944;5.382;2023-02-01T00:05:28;7.50;91.60
43651;DHT22;29247;50.944;5.382;2023-02-01T00:07:54;7.50;91.60
43651;DHT22;29247;50.944;5.382;2023-02-01T00:10:22;7.60;91.50
43651;DHT22;29247;50.944;5.382;2023-02-01T00:12:51;7.60;91.50
43651;DHT22;29247;50.944;5.382;2023-02-01T00:15:19;7.60;91.50
43651;DHT22;29247;50.944;5.382;2023-02-01T00:17:46;7.60;91.40
43651;DHT22;29247;50.944;5.382;2023-02-01T00:20:14;7.60;91.50
43651;DHT22;29247;50.944;5.382;2023-02-01T00:22:39;7.60;91.50
43651;DHT22;29247;50.944;5.382;2023-02-01T00:25:08;7.60;91.40
43651;DHT22;29247;50.944;5.382;2023-02-01T00:27:38;7.60;91.40
43651;DHT22;29247;50.944;5.382;2023-02-01T00:30:04;7.60;91.30
43651;DHT22;29247;50.944;5.382;2023-02-01T00:32:33;7.60;91.20
43651;DHT22;29247;50.944;5.382;2023-02-01T00:34:59;7.60;91.20
43651;DHT22;29247;50.944;5.382;2023-02-01T00:37:24;7.60;91.20
43651;DHT22;29247;50.944;5.382;2023-02-01T00:39:51;7.60;91.20
43651;DHT22;29247;50.944;5.382;2023-02-01T00:42:17;7.60;91.30
43651;DHT22;29247;50.944;5.382;2023-02-01T00:44:43;7.60;91.40
43651;DHT22;29247;50.944;5.382;2023-02-01T00:47:11;7.60;91.40
43651;DHT22;29247;50.944;5.382;2023-02-01T00:49:39;7.60;91.40
43651;DHT22;29247;50.944;5.382;2023-02-01T00:52:05;7.60;91.40
43651;DHT22;29247;50.944;5.382;2023-02-01T00:54:33;7.70;91.50
43651;DHT22;29247;50.944;5.382;2023-02-01T00:57:02;7.70;91.50
43651;DHT22;29247;50.944;5.382;2023-02-01T00:59:28;7.70;91.40
43651;DHT22;29247;50.944;5.382;2023-02-01T01:01:54;7.70;91.50
43651;DHT22;29247;50.944;5.382;2023-02-01T01:04:19;7.70;91.50
43651;DHT22;29247;50.944;5.382;2023-02-01T01:06:45;7.80;91.50
43651;DHT22;29247;50.944;5.382;2023-02-01T01:09:10;7.70;91.40
43651;DHT22;29247;50.944;5.382;2023-02-01T01:11:38;7.80;91.50
43651;DHT22;29247;50.944;5.382;2023-02-01T01:14:05;7.80;91.40
43651;DHT22;29247;50.944;5.382;2023-02-01T01:16:34;7.80;91.40
43651;DHT22;29247;50.944;5.382;2023-02-01T01:19:04;7.80;91.40
43651;DHT22;29247;50.944;5.382;2023-02-01T01:21:30;7.80;91.40
43651;DHT22;29247;50.944;5.382;2023-02-01T01:23:57;7.80;91.40
43651;DHT22;29247;50.944;5.382;2023-02-01T01:26:25;7.80;91.40
43651;DHT22;29247;50.944;5.382;2023-02-01T01:28:52;7.90;91.40
43651;DHT22;29247;50.944;5.382;2023-02-01T01:31:19;7.80;91.40
43651;DHT22;29247;50.944;5.382;2023-02-01T01:33:49;7.90;91.40
43651;DHT22;29247;50.944;5.382;2023-02-01T01:36:15;7.90;91.40
43651;DHT22;29247;50.944;5.382;2023-02-01T01:38:42;7.90;91.50
43651;DHT22;29247;50.944;5.382;2023-02-01T01:41:14;7.90;91.40
43651;DHT22;29247;50.944;5.382;2023-02-01T01:46:24;7.90;91.40
43651;DHT22;29247;50.944;5.382;2023-02-01T01:51:24;7.90;91.30
43651;DHT22;29247;50.944;5.382;2023-02-01T01:54:18;7.90;91.30
43651;DHT22;29247;50.944;5.382;2023-02-01T01:56:55;7.90;91.30
43651;DHT22;29247;50.944;5.382;2023-02-01T01:59:23;7.90;91.30
43651;DHT22;29247;50.944;5.382;2023-02-01T02:01:50;7.90;91.20
43651;DHT22;29247;50.944;5.382;2023-02-01T02:04:16;7.90;91.20
43651;DHT22;29247;50.944;5.382;2023-02-01T02:07:00;7.90;91.30
43651;DHT22;29247;50.944;5.382;2023-02-01T02:09:32;7.90;91.30
43651;DHT22;29247;50.944;5.382;2023-02-01T02:12:01;8.00;91.30
43651;DHT22;29247;50.944;5.382;2023-02-01T02:14:27;8.00;91.30
43651;DHT22;29247;50.944;5.382;2023-02-01T02:34:31;7.90;91.10
43651;DHT22;29247;50.944;5.382;2023-02-01T02:46:22;7.90;91.10
43651;DHT22;29247;50.944;5.382;2023-02-01T02:49:21;7.90;91.00
43651;DHT22;29247;50.944;5.382;2023-02-01T02:51:52;7.90;91.00
43651;DHT22;29247;50.944;5.382;2023-02-01T02:54:43;7.90;90.90
43651;DHT22;29247;50.944;5.382;2023-02-01T03:00:21;7.80;90.80
43651;DHT22;29247;50.944;5.382;2023-02-01T03:03:08;7.80;90.80
43651;DHT22;29247;50.944;5.382;2023-02-01T03:05:53;7.80;90.70
43651;DHT22;29247;50.944;5.382;2023-02-01T03:08:24;7.80;90.70
43651;DHT22;29247;50.944;5.382;2023-02-01T03:11:01;7.80;90.60
43651;DHT22;29247;50.944;5.382;2023-02-01T03:13:44;7.80;90.50
43651;DHT22;29247;50.944;5.382;2023-02-01T03:16:31;7.70;90.30
43651;DHT22;29247;50.944;5.382;2023-02-01T03:21:50;7.60;90.10
43651;DHT22;29247;50.944;5.382;2023-02-01T03:24:45;7.60;90.00
43651;DHT22;29247;50.944;5.382;2023-02-01T03:27:27;7.50;89.90
43651;DHT22;29247;50.944;5.382;2023-02-01T03:30:17;7.50;89.60
43651;DHT22;29247;50.944;5.382;2023-02-01T03:32:47;7.50;89.50
43651;DHT22;29247;50.944;5.382;2023-02-01T03:41:21;7.40;89.00
43651;DHT22;29247;50.944;5.382;2023-02-01T03:44:16;7.40;88.90
43651;DHT22;29247;50.944;5.382;2023-02-01T03:46:55;7.40;88.70
43651;DHT22;29247;50.944;5.382;2023-02-01T03:52:16;7.40;88.60
43651;DHT22;29247;50.944;5.382;2023-02-01T03:54:47;7.40;88.30
43651;DHT22;29247;50.944;5.382;2023-02-01T03:57:21;7.30;88.10
43651;DHT22;29247;50.944;5.382;2023-02-01T03:59:48;7.30;88.00
43651;DHT22;29247;50.944;5.382;2023-02-01T04:02:13;7.30;87.90
43651;DHT22;29247;50.944;5.382;2023-02-01T04:04:39;7.30;87.80
43651;DHT22;29247;50.944;5.382;2023-02-01T04:07:04;7.30;87.60
43651;DHT22;29247;50.944;5.382;2023-02-01T04:09:30;7.20;87.50
43651;DHT22;29247;50.944;5.382;2023-02-01T04:11:56;7.20;87.30
43651;DHT22;29247;50.944;5.382;2023-02-01T04:14:22;7.20;87.40
43651;DHT22;29247;50.944;5.382;2023-02-01T04:16:47;7.20;87.30
43651;DHT22;29247;50.944;5.382;2023-02-01T04:19:15;7.20;87.30
43651;DHT22;29247;50.944;5.382;2023-02-01T04:21:41;7.20;87.30
43651;DHT22;29247;50.944;5.382;2023-02-01T04:24:07;7.20;87.20
43651;DHT22;29247;50.944;5.382;2023-02-01T04:26:34;7.10;87.20
43651;DHT22;29247;50.944;5.382;2023-02-01T04:28:59;7.20;87.40
43651;DHT22;29247;50.944;5.382;2023-02-01T04:31:25;7.10;87.40
43651;DHT22;29247;50.944;5.382;2023-02-01T04:33:52;7.20;87.40
43651;DHT22;29247;50.944;5.382;2023-02-01T04:36:18;7.10;87.30
43651;DHT22;29247;50.944;5.382;2023-02-01T04:38:51;7.20;87.20
43651;DHT22;29247;50.944;5.382;2023-02-01T04:41:20;7.10;87.00
43651;DHT22;29247;50.944;5.382;2023-02-01T04:43:49;7.10;86.90
43651;DHT22;29247;50.944;5.382;2023-02-01T04:46:17;7.10;86.90
43651;DHT22;29247;50.944;5.382;2023-02-01T04:48:47;7.10;86.80
43651;DHT22;29247;50.944;5.382;2023-02-01T04:51:16;7.10;86.80
43651;DHT22;29247;50.944;5.382;2023-02-01T04:53:44;7.10;86.80
43651;DHT22;29247;50.944;5.382;2023-02-01T04:56:10;7.10;86.70
43651;DHT22;29247;50.944;5.382;2023-02-01T04:58:36;7.10;86.60
43651;DHT22;29247;50.944;5.382;2023-02-01T05:01:06;7.10;86.50
43651;DHT22;29247;50.944;5.382;2023-02-01T05:03:35;7.00;86.50
43651;DHT22;29247;50.944;5.382;2023-02-01T05:06:03;7.00;86.40
43651;DHT22;29247;50.944;5.382;2023-02-01T05:08:32;7.00;86.50
43651;DHT22;29247;50.944;5.382;2023-02-01T05:10:58;7.00;86.40
43651;DHT22;29247;50.944;5.382;2023-02-01T05:13:32;7.00;86.50
43651;DHT22;29247;50.944;5.382;2023-02-01T05:16:13;7.10;86.50
43651;DHT22;29247;50.944;5.382;2023-02-01T05:18:39;7.00;86.40
43651;DHT22;29247;50.944;5.382;2023-02-01T05:21:08;7.00;86.30
43651;DHT22;29247;50.944;5.382;2023-02-01T05:23:35;7.00;86.30
43651;DHT22;29247;50.944;5.382;2023-02-01T05:26:21;7.00;86.30
43651;DHT22;29247;50.944;5.382;2023-02-01T05:28:50;7.00;86.30
43651;DHT22;29247;50.944;5.382;2023-02-01T05:31:21;6.90;86.20
43651;DHT22;29247;50.944;5.382;2023-02-01T05:33:47;7.00;86.30
43651;DHT22;29247;50.944;5.382;2023-02-01T05:36:14;6.90;86.20
43651;DHT22;29247;50.944;5.382;2023-02-01T05:38:39;6.90;86.20
43651;DHT22;29247;50.944;5.382;2023-02-01T05:41:07;6.90;86.20
43651;DHT22;29247;50.944;5.382;2023-02-01T05:43:37;6.90;86.10
43651;DHT22;29247;50.944;5.382;2023-02-01T05:46:03;6.90;86.10
43651;DHT22;29247;50.944;5.382;2023-02-01T05:48:29;6.90;85.90
43651;DHT22;29247;50.944;5.382;2023-02-01T05:50:55;6.90;85.90
43651;DHT22;29247;50.944;5.382;2023-02-01T05:53:21;6.90;85.90
43651;DHT22;29247;50.944;5.382;2023-02-01T05:55:46;6.90;86.00
43651;DHT22;29247;50.944;5.382;2023-02-01T05:58:12;6.90;85.90
43651;DHT22;29247;50.944;5.382;2023-02-01T06:00:38;6.90;85.90
43651;DHT22;29247;50.944;5.382;2023-02-01T06:03:04;6.90;86.00
43651;DHT22;29247;50.944;5.382;2023-02-01T06:05:34;6.90;85.90
43651;DHT22;29247;50.944;5.382;2023-02-01T06:08:00;6.80;85.70
43651;DHT22;29247;50.944;5.382;2023-02-01T06:10:28;6.80;85.70
43651;DHT22;29247;50.944;5.382;2023-02-01T06:12:54;6.80;85.80
43651;DHT22;29247;50.944;5.382;2023-02-01T06:15:22;6.80;85.80
43651;DHT22;29247;50.944;5.382;2023-02-01T06:17:47;6.80;85.80
43651;DHT22;29247;50.944;5.382;2023-02-01T06:20:14;6.70;85.80
43651;DHT22;29247;50.944;5.382;2023-02-01T06:22:43;6.80;85.90
43651;DHT22;29247;50.944;5.382;2023-02-01T06:25:09;6.70;85.80
43651;DHT22;29247;50.944;5.382;2023-02-01T06:27:42;6.70;85.80
43651;DHT22;29247;50.944;5.382;2023-02-01T06:30:10;6.70;85.70
43651;DHT22;29247;50.944;5.382;2023-02-01T06:32:39;6.70;85.70
43651;DHT22;29247;50.944;5.382;2023-02-01T06:35:07;6.70;85.70
43651;DHT22;29247;50.944;5.382;2023-02-01T06:37:33;6.70;85.90
43651;DHT22;29247;50.944;5.382;2023-02-01T06:39:59;6.70;86.00
43651;DHT22;29247;50.944;5.382;2023-02-01T06:42:25;6.70;86.10
43651;DHT22;29247;50.944;5.382;2023-02-01T06:44:51;6.70;86.20
43651;DHT22;29247;50.944;5.382;2023-02-01T06:47:19;6.60;86.10
43651;DHT22;29247;50.944;5.382;2023-02-01T06:49:45;6.70;86.20
43651;DHT22;29247;50.944;5.382;2023-02-01T06:52:10;6.60;86.10
43651;DHT22;29247;50.944;5.382;2023-02-01T06:54:36;6.70;86.10
43651;DHT22;29247;50.944;5.382;2023-02-01T06:57:03;6.60;86.00
43651;DHT22;29247;50.944;5.382;2023-02-01T06:59:29;6.60;86.00
43651;DHT22;29247;50.944;5.382;2023-02-01T07:01:55;6.60;86.70
43651;DHT22;29247;50.944;5.382;2023-02-01T07:04:21;6.60;86.60
43651;DHT22;29247;50.944;5.382;2023-02-01T07:06:46;6.60;85.90
43651;DHT22;29247;50.944;5.382;2023-02-01T07:09:12;6.60;86.80
43651;DHT22;29247;50.944;5.382;2023-02-01T07:11:39;6.60;86.00
43651;DHT22;29247;50.944;5.382;2023-02-01T07:14:11;6.60;86.00
43651;DHT22;29247;50.944;5.382;2023-02-01T07:16:37;6.60;86.00
43651;DHT22;29247;50.944;5.382;2023-02-01T07:19:05;6.50;86.00
43651;DHT22;29247;50.944;5.382;2023-02-01T07:21:36;6.50;86.00
43651;DHT22;29247;50.944;5.382;2023-02-01T07:24:04;6.50;86.00
43651;DHT22;29247;50.944;5.382;2023-02-01T07:26:30;6.50;86.00
43651;DHT22;29247;50.944;5.382;2023-02-01T07:28:56;6.50;86.00
43651;DHT22;29247;50.944;5.382;2023-02-01T07:31:22;6.50;86.00
43651;DHT22;29247;50.944;5.382;2023-02-01T07:33:49;6.50;86.10
43651;DHT22;29247;50.944;5.382;2023-02-01T07:36:18;6.50;86.20
43651;DHT22;29247;50.944;5.382;2023-02-01T07:38:45;6.50;86.20
43651;DHT22;29247;50.944;5.382;2023-02-01T07:41:17;6.50;86.20
43651;DHT22;29247;50.944;5.382;2023-02-01T07:43:43;6.50;86.20
43651;DHT22;29247;50.944;5.382;2023-02-01T07:46:12;6.50;86.20
43651;DHT22;29247;50.944;5.382;2023-02-01T07:48:42;6.50;86.30
43651;DHT22;29247;50.944;5.382;2023-02-01T07:51:13;6.50;86.40
43651;DHT22;29247;50.944;5.382;2023-02-01T07:53:42;6.50;86.40
43651;DHT22;29247;50.944;5.382;2023-02-01T07:56:13;6.50;86.40
43651;DHT22;29247;50.944;5.382;2023-02-01T07:58:39;6.50;86.50
43651;DHT22;29247;50.944;5.382;2023-02-01T08:01:04;6.50;86.40
43651;DHT22;29247;50.944;5.382;2023-02-01T08:03:56;6.60;86.50
43651;DHT22;29247;50.944;5.382;2023-02-01T08:06:23;6.60;86.40
43651;DHT22;29247;50.944;5.382;2023-02-01T08:08:50;6.60;86.40
43651;DHT22;29247;50.944;5.382;2023-02-01T08:11:22;6.60;86.30
43651;DHT22;29247;50.944;5.382;2023-02-01T08:13:47;6.60;86.30
43651;DHT22;29247;50.944;5.382;2023-02-01T08:16:15;6.60;86.40
43651;DHT22;29247;50.944;5.382;2023-02-01T08:18:42;6.60;86.40
43651;DHT22;29247;50.944;5.382;2023-02-01T08:21:15;6.60;86.40
43651;DHT22;29247;50.944;5.382;2023-02-01T08:23:42;6.70;86.50
43651;DHT22;29247;50.944;5.382;2023-02-01T08:26:22;6.70;86.50
43651;DHT22;29247;50.944;5.382;2023-02-01T08:28:58;6.70;86.50
43651;DHT22;29247;50.944;5.382;2023-02-01T08:31:27;6.70;86.50
43651;DHT22;29247;50.944;5.382;2023-02-01T08:33:57;6.80;86.80
43651;DHT22;29247;50.944;5.382;2023-02-01T08:36:26;6.80;86.90
43651;DHT22;29247;50.944;5.382;2023-02-01T08:38:52;6.90;87.10
43651;DHT22;29247;50.944;5.382;2023-02-01T08:41:23;7.00;87.10
43651;DHT22;29247;50.944;5.382;2023-02-01T08:43:52;7.00;87.00
43651;DHT22;29247;50.944;5.382;2023-02-01T08:46:19;7.10;86.80
43651;DHT22;29247;50.944;5.382;2023-02-01T08:48:46;7.20;86.70
43651;DHT22;29247;50.944;5.382;2023-02-01T08:51:17;7.20;86.60
43651;DHT22;29247;50.944;5.382;2023-02-01T08:53:45;7.20;86.60
43651;DHT22;29247;50.944;5.382;2023-02-01T08:56:13;7.30;86.60
43651;DHT22;29247;50.944;5.382;2023-02-01T08:58:42;7.40;86.50
43651;DHT22;29247;50.944;5.382;2023-02-01T09:01:11;7.40;86.30
43651;DHT22;29247;50.944;5.382;2023-02-01T09:03:40;7.40;85.90
43651;DHT22;29247;50.944;5.382;2023-02-01T09:06:09;7.50;85.90
43651;DHT22;29247;50.944;5.382;2023-02-01T09:08:35;7.50;85.80
43651;DHT22;29247;50.944;5.382;2023-02-01T09:11:03;7.60;85.70
43651;DHT22;29247;50.944;5.382;2023-02-01T09:13:31;7.60;85.50
43651;DHT22;29247;50.944;5.382;2023-02-01T09:15:59;7.60;85.50
43651;DHT22;29247;50.944;5.382;2023-02-01T09:18:26;7.70;85.40
43651;DHT22;29247;50.944;5.382;2023-02-01T09:20:54;7.70;85.20
43651;DHT22;29247;50.944;5.382;2023-02-01T09:23:22;7.70;85.10
43651;DHT22;29247;50.944;5.382;2023-02-01T09:25:50;7.70;84.90
43651;DHT22;29247;50.944;5.382;2023-02-01T09:28:17;7.80;84.90
43651;DHT22;29247;50.944;5.382;2023-02-01T09:30:43;7.80;84.80
43651;DHT22;29247;50.944;5.382;2023-02-01T09:33:11;7.80;84.70
43651;DHT22;29247;50.944;5.382;2023-02-01T09:35:39;7.80;84.60
43651;DHT22;29247;50.944;5.382;2023-02-01T09:38:07;7.90;84.60
43651;DHT22;29247;50.944;5.382;2023-02-01T09:40:34;7.90;84.40
43651;DHT22;29247;50.944;5.382;2023-02-01T09:43:18;7.90;84.30
43651;DHT22;29247;50.944;5.382;2023-02-01T09:46:12;7.90;84.10
43651;DHT22;29247;50.944;5.382;2023-02-01T09:48:43;7.90;83.90
43651;DHT22;29247;50.944;5.382;2023-02-01T09:51:16;7.90;83.80
43651;DHT22;29247;50.944;5.382;2023-02-01T09:54:04;7.90;83.80
43651;DHT22;29247;50.944;5.382;2023-02-01T09:56:55;8.00;83.90
43651;DHT22;29247;50.944;5.382;2023-02-01T10:02:03;8.10;83.90
43651;DHT22;29247;50.944;5.382;2023-02-01T10:04:30;8.10;83.80
43651;DHT22;29247;50.944;5.382;2023-02-01T10:07:10;8.10;83.70
43651;DHT22;29247;50.944;5.382;2023-02-01T10:09:42;8.20;83.80
43651;DHT22;29247;50.944;5.382;2023-02-01T10:12:35;8.20;83.70
43651;DHT22;29247;50.944;5.382;2023-02-01T10:18:09;8.30;83.40
43651;DHT22;29247;50.944;5.382;2023-02-01T10:21:09;8.40;83.30
43651;DHT22;29247;50.944;5.382;2023-02-01T10:26:24;8.50;83.10
43651;DHT22;29247;50.944;5.382;2023-02-01T10:28:52;8.50;82.80
43651;DHT22;29247;50.944;5.382;2023-02-01T10:31:21;8.50;82.70
43651;DHT22;29247;50.944;5.382;2023-02-01T10:33:57;8.60;82.70
43651;DHT22;29247;50.944;5.382;2023-02-01T10:36:40;8.60;82.50
43651;DHT22;29247;50.944;5.382;2023-02-01T10:39:08;8.70;82.40
43651;DHT22;29247;50.944;5.382;2023-02-01T10:41:38;8.80;82.50
43651;DHT22;29247;50.944;5.382;2023-02-01T10:44:09;8.80;82.40
43651;DHT22;29247;50.944;5.382;2023-02-01T10:46:37;8.90;82.40
43651;DHT22;29247;50.944;5.382;2023-02-01T10:49:04;9.00;82.40
43651;DHT22;29247;50.944;5.382;2023-02-01T10:54:20;9.10;82.10
43651;DHT22;29247;50.944;5.382;2023-02-01T10:56:49;9.20;81.80
43651;DHT22;29247;50.944;5.382;2023-02-01T10:59:19;9.30;81.80
43651;DHT22;29247;50.944;5.382;2023-02-01T11:01:49;9.30;81.90
43651;DHT22;29247;50.944;5.382;2023-02-01T11:04:20;9.40;81.80
43651;DHT22;29247;50.944;5.382;2023-02-01T11:06:49;9.50;81.50
43651;DHT22;29247;50.944;5.382;2023-02-01T11:09:19;9.60;81.20
43651;DHT22;29247;50.944;5.382;2023-02-01T11:14:32;9.70;80.90
43651;DHT22;29247;50.944;5.382;2023-02-01T11:17:01;9.80;81.20
43651;DHT22;29247;50.944;5.382;2023-02-01T11:19:27;9.90;80.90
43651;DHT22;29247;50.944;5.382;2023-02-01T11:21:56;10.00;80.50
43651;DHT22;29247;50.944;5.382;2023-02-01T11:24:33;10.00;80.40
43651;DHT22;29247;50.944;5.382;2023-02-01T11:27:04;10.10;80.40
43651;DHT22;29247;50.944;5.382;2023-02-01T11:29:39;10.30;80.00
43651;DHT22;29247;50.944;5.382;2023-02-01T11:32:08;10.30;79.30
43651;DHT22;29247;50.944;5.382;2023-02-01T11:34:51;10.30;79.10
43651;DHT22;29247;50.944;5.382;2023-02-01T11:40:22;10.40;79.00
43651;DHT22;29247;50.944;5.382;2023-02-01T11:43:00;10.50;78.40
43651;DHT22;29247;50.944;5.382;2023-02-01T11:45:29;10.60;77.90
43651;DHT22;29247;50.944;5.382;2023-02-01T11:47:56;10.60;77.50
43651;DHT22;29247;50.944;5.382;2023-02-01T11:56:33;10.70;76.30
43651;DHT22;29247;50.944;5.382;2023-02-01T12:07:10;10.80;74.60
43651;DHT22;29247;50.944;5.382;2023-02-01T12:24:04;10.50;74.60
43651;DHT22;29247;50.944;5.382;2023-02-01T12:29:55;10.50;74.50
43651;DHT22;29247;50.944;5.382;2023-02-01T12:32:25;10.40;74.50
43651;DHT22;29247;50.944;5.382;2023-02-01T12:35:10;10.40;74.40
43651;DHT22;29247;50.944;5.382;2023-02-01T12:41:15;10.40;74.20
43651;DHT22;29247;50.944;5.382;2023-02-01T12:44:01;10.40;74.10
43651;DHT22;29247;50.944;5.382;2023-02-01T12:46:40;10.30;74.20
43651;DHT22;29247;50.944;5.382;2023-02-01T12:49:33;10.30;74.20
43651;DHT22;29247;50.944;5.382;2023-02-01T12:52:11;10.20;74.10
43651;DHT22;29247;50.944;5.382;2023-02-01T12:54:48;10.20;74.10
43651;DHT22;29247;50.944;5.382;2023-02-01T12:57:28;10.20;74.30
43651;DHT22;29247;50.944;5.382;2023-02-01T13:05:31;10.10;74.30
43651;DHT22;29247;50.944;5.382;2023-02-01T13:08:04;10.10;74.40
43651;DHT22;29247;50.944;5.382;2023-02-01T13:10:46;10.10;74.60
43651;DHT22;29247;50.944;5.382;2023-02-01T13:22:03;10.10;74.90
43651;DHT22;29247;50.944;5.382;2023-02-01T13:27:01;10.10;74.80
43651;DHT22;29247;50.944;5.382;2023-02-01T13:29:28;10.10;75.00
43651;DHT22;29247;50.944;5.382;2023-02-01T13:32:09;10.10;75.00
43651;DHT22;29247;50.944;5.382;2023-02-01T13:35:08;10.10;74.90
43651;DHT22;29247;50.944;5.382;2023-02-01T13:40:50;10.10;74.70
43651;DHT22;29247;50.944;5.382;2023-02-01T13:43:28;10.10;74.50
43651;DHT22;29247;50.944;5.382;2023-02-01T13:46:05;10.10;74.60
43651;DHT22;29247;50.944;5.382;2023-02-01T13:48:49;10.10;74.70
43651;DHT22;29247;50.944;5.382;2023-02-01T13:54:00;10.10;74.40
43651;DHT22;29247;50.944;5.382;2023-02-01T13:56:26;10.10;74.40
43651;DHT22;29247;50.944;5.382;2023-02-01T13:58:55;10.10;74.40
43651;DHT22;29247;50.944;5.382;2023-02-01T14:03:59;10.10;74.10
43651;DHT22;29247;50.944;5.382;2023-02-01T14:11:51;10.20;73.10
43651;DHT22;29247;50.944;5.382;2023-02-01T14:19:28;10.20;73.40
43651;DHT22;29247;50.944;5.382;2023-02-01T14:21:55;10.30;73.30
43651;DHT22;29247;50.944;5.382;2023-02-01T14:24:30;10.20;73.30
43651;DHT22;29247;50.944;5.382;2023-02-01T14:29:39;10.20;73.30
43651;DHT22;29247;50.944;5.382;2023-02-01T14:32:21;10.20;73.20
43651;DHT22;29247;50.944;5.382;2023-02-01T15:06:22;10.30;73.10
43651;DHT22;29247;50.944;5.382;2023-02-01T15:08:56;10.30;73.20
43651;DHT22;29247;50.944;5.382;2023-02-01T15:11:23;10.20;73.00
43651;DHT22;29247;50.944;5.382;2023-02-01T15:13:52;10.20;73.10
43651;DHT22;29247;50.944;5.382;2023-02-01T15:16:20;10.20;73.10
43651;DHT22;29247;50.944;5.382;2023-02-01T15:18:48;10.20;73.10
43651;DHT22;29247;50.944;5.382;2023-02-01T15:21:22;10.20;73.30
43651;DHT22;29247;50.944;5.382;2023-02-01T15:24:41;10.20;73.50
43651;DHT22;29247;50.944;5.382;2023-02-01T15:27:05;10.20;73.70
43651;DHT22;29247;50.944;5.382;2023-02-01T15:29:33;10.20;73.80
43651;DHT22;29247;50.944;5.382;2023-02-01T15:32:00;10.10;74.00
43651;DHT22;29247;50.944;5.382;2023-02-01T15:34:48;10.20;74.10
43651;DHT22;29247;50.944;5.382;2023-02-01T15:37:17;10.10;74.20
43651;DHT22;29247;50.944;5.382;2023-02-01T15:42:56;10.10;74.30
43651;DHT22;29247;50.944;5.382;2023-02-01T15:45:26;10.10;74.30
43651;DHT22;29247;50.944;5.382;2023-02-01T15:47:59;10.10;74.30
43651;DHT22;29247;50.944;5.382;2023-02-01T15:50:32;10.10;74.40
43651;DHT22;29247;50.944;5.382;2023-02-01T15:52:59;10.10;74.60
43651;DHT22;29247;50.944;5.382;2023-02-01T15:55:45;10.10;74.70
43651;DHT22;29247;50.944;5.382;2023-02-01T15:58:21;10.10;75.00
43651;DHT22;29247;50.944;5.382;2023-02-01T16:00:54;10.10;75.00
43651;DHT22;29247;50.944;5.382;2023-02-01T16:06:02;10.10;75.20
43651;DHT22;29247;50.944;5.382;2023-02-01T16:08:30;10.10;75.30
43651;DHT22;29247;50.944;5.382;2023-02-01T16:11:25;10.10;75.40
43651;DHT22;29247;50.944;5.382;2023-02-01T16:13:52;10.10;75.60
43651;DHT22;29247;50.944;5.382;2023-02-01T16:16:18;10.10;75.70
43651;DHT22;29247;50.944;5.382;2023-02-01T16:18:45;10.10;75.90
43651;DHT22;29247;50.944;5.382;2023-02-01T16:21:13;10.10;76.00
43651;DHT22;29247;50.944;5.382;2023-02-01T16:23:39;10.00;76.20
43651;DHT22;29247;50.944;5.382;2023-02-01T16:26:05;10.00;76.30
43651;DHT22;29247;50.944;5.382;2023-02-01T16:28:33;10.00;76.40
43651;DHT22;29247;50.944;5.382;2023-02-01T16:31:04;10.00;76.50
43651;DHT22;29247;50.944;5.382;2023-02-01T16:33:32;9.90;76.50
43651;DHT22;29247;50.944;5.382;2023-02-01T16:36:00;9.90;76.50
43651;DHT22;29247;50.944;5.382;2023-02-01T16:38:28;9.90;76.60
43651;DHT22;29247;50.944;5.382;2023-02-01T16:40:53;9.90;76.70
43651;DHT22;29247;50.944;5.382;2023-02-01T16:43:24;9.90;76.70
43651;DHT22;29247;50.944;5.382;2023-02-01T16:45:55;9.90;76.80
43651;DHT22;29247;50.944;5.382;2023-02-01T16:48:30;9.90;77.60
43651;DHT22;29247;50.944;5.382;2023-02-01T16:50:58;9.90;76.90
43651;DHT22;29247;50.944;5.382;2023-02-01T16:53:27;9.90;77.00
43651;DHT22;29247;50.944;5.382;2023-02-01T16:55:54;9.80;77.80
43651;DHT22;29247;50.944;5.382;2023-02-01T16:58:23;9.80;77.20
43651;DHT22;29247;50.944;5.382;2023-02-01T17:00:52;9.80;77.40
43651;DHT22;29247;50.944;5.382;2023-02-01T17:03:20;9.90;77.50
43651;DHT22;29247;50.944;5.382;2023-02-01T17:05:54;9.80;77.60
43651;DHT22;29247;50.944;5.382;2023-02-01T17:08:27;9.80;77.70
43651;DHT22;29247;50.944;5.382;2023-02-01T17:10:55;9.80;77.80
43651;DHT22;29247;50.944;5.382;2023-02-01T17:13:26;9.80;77.80
43651;DHT22;29247;50.944;5.382;2023-02-01T17:18:58;9.80;77.80
43651;DHT22;29247;50.944;5.382;2023-02-01T17:21:29;9.80;77.80
43651;DHT22;29247;50.944;5.382;2023-02-01T17:23:56;9.70;77.60
43651;DHT22;29247;50.944;5.382;2023-02-01T17:26:24;9.70;77.60
43651;DHT22;29247;50.944;5.382;2023-02-01T17:28:52;9.70;77.60
43651;DHT22;29247;50.944;5.382;2023-02-01T17:31:20;9.70;77.70
43651;DHT22;29247;50.944;5.382;2023-02-01T17:33:46;9.70;77.60
43651;DHT22;29247;50.944;5.382;2023-02-01T17:36:16;9.70;77.60
43651;DHT22;29247;50.944;5.382;2023-02-01T17:38:43;9.70;77.60
43651;DHT22;29247;50.944;5.382;2023-02-01T17:41:12;9.70;77.50
43651;DHT22;29247;50.944;5.382;2023-02-01T17:43:41;9.70;77.50
43651;DHT22;29247;50.944;5.382;2023-02-01T17:46:12;9.70;77.50
43651;DHT22;29247;50.944;5.382;2023-02-01T17:48:39;9.70;77.40
43651;DHT22;29247;50.944;5.382;2023-02-01T17:51:18;9.70;77.40
43651;DHT22;29247;50.944;5.382;2023-02-01T17:53:47;9.60;77.30
43651;DHT22;29247;50.944;5.382;2023-02-01T17:56:16;9.60;77.30
43651;DHT22;29247;50.944;5.382;2023-02-01T17:58:42;9.60;77.30
43651;DHT22;29247;50.944;5.382;2023-02-01T18:01:20;9.60;77.50
43651;DHT22;29247;50.944;5.382;2023-02-01T18:03:46;9.60;77.60
43651;DHT22;29247;50.944;5.382;2023-02-01T18:06:20;9.60;77.60
43651;DHT22;29247;50.944;5.382;2023-02-01T18:08:55;9.60;77.80
43651;DHT22;29247;50.944;5.382;2023-02-01T18:11:23;9.60;77.80
43651;DHT22;29247;50.944;5.382;2023-02-01T18:13:50;9.60;77.80
43651;DHT22;29247;50.944;5.382;2023-02-01T18:18:48;9.60;77.90
43651;DHT22;29247;50.944;5.382;2023-02-01T18:21:16;9.60;77.90
43651;DHT22;29247;50.944;5.382;2023-02-01T18:23:45;9.60;78.00
43651;DHT22;29247;50.944;5.382;2023-02-01T18:26:12;9.60;78.00
43651;DHT22;29247;50.944;5.382;2023-02-01T18:28:40;9.60;78.10
43651;DHT22;29247;50.944;5.382;2023-02-01T18:33:53;9.60;78.20
43651;DHT22;29247;50.944;5.382;2023-02-01T18:36:19;9.60;78.20
43651;DHT22;29247;50.944;5.382;2023-02-01T18:38:45;9.60;78.10
43651;DHT22;29247;50.944;5.382;2023-02-01T18:41:15;9.60;78.10
43651;DHT22;29247;50.944;5.382;2023-02-01T18:43:41;9.60;78.40
43651;DHT22;29247;50.944;5.382;2023-02-01T18:46:16;9.60;78.40
43651;DHT22;29247;50.944;5.382;2023-02-01T18:48:44;9.60;78.40
43651;DHT22;29247;50.944;5.382;2023-02-01T18:51:12;9.70;78.40
43651;DHT22;29247;50.944;5.382;2023-02-01T18:53:42;9.60;79.10
43651;DHT22;29247;50.944;5.382;2023-02-01T18:56:13;9.60;78.40
43651;DHT22;29247;50.944;5.382;2023-02-01T18:58:42;9.60;78.40
43651;DHT22;29247;50.944;5.382;2023-02-01T19:01:13;9.60;78.40
43651;DHT22;29247;50.944;5.382;2023-02-01T19:03:43;9.70;78.60
43651;DHT22;29247;50.944;5.382;2023-02-01T19:06:08;9.60;78.60